< Typhoon 197313 1973 Season Typhoon 197315 >
Typhoon 197314 (MARGE)
General InformationTrack Information on Google Maps || Disaster Info.ResourceGoogle EarthGE AnimationAtom FeedGeoJSON
Detalied Best Track (Time Zone = UTC)
Year Month Day Hour Lat. Long. Pressure (hPa) Wind (kt) Class Image Chart
1973 9 10 00 14.0 128.0 1008 0 2 -- Chart
1973 9 10 06 14.8 127.3 1008 0 2 -- Chart
1973 9 10 12 15.5 126.5 1008 0 2 -- Chart
1973 9 10 18 16.3 125.7 1006 0 2 -- Chart
1973 9 11 00 17.0 124.5 1004 0 2 -- Chart
1973 9 11 06 17.2 123.2 1004 0 2 -- Chart
1973 9 11 12 17.3 122.0 1006 0 2 -- Chart
1973 9 11 18 17.3 120.7 1004 0 2 -- Chart
1973 9 12 00 17.3 119.5 1002 0 2 -- Chart
1973 9 12 06 17.7 118.2 1002 0 9 -- Chart
1973 9 12 12 18.3 117.3 996 0 9 -- Chart
1973 9 12 18 18.3 116.0 998 0 9 -- Chart
1973 9 13 00 18.5 114.6 985 0 9 -- Chart
1973 9 13 06 18.8 113.5 970 0 9 -- Chart
1973 9 13 12 19.0 112.4 965 0 9 -- Chart
1973 9 13 18 19.1 111.2 965 0 9 -- Chart
1973 9 14 00 19.2 110.0 975 0 9 -- Chart
1973 9 14 06 19.3 109.2 980 0 9 -- Chart
1973 9 14 12 19.5 108.1 980 0 9 -- Chart
1973 9 14 18 19.7 107.0 980 0 9 -- Chart
1973 9 15 00 19.8 106.0 990 0 9 -- Chart
1973 9 15 06 20.0 105.0 1000 0 2 -- Chart
1973 9 15 12 20.0 104.0 1002 0 2 -- Chart
1973 9 15 18 20.0 103.0 1004 0 2 -- Chart
Japan Meteorological Agency Best Track Data | Correction Date : 1990-10-17
< Typhoon 197313 1973 Season Typhoon 197315 >

Help